createdAt,value
2023-09-17T00:00:26.707Z,86.98
2023-09-17T00:02:54.211Z,87.36
2023-09-17T00:05:21.732Z,87.51
2023-09-17T00:07:49.154Z,87.40
2023-09-17T00:10:16.668Z,88.06
2023-09-17T00:12:43.972Z,87.69
2023-09-17T00:15:11.357Z,88.22
2023-09-17T00:17:38.804Z,88.54
2023-09-17T00:20:11.944Z,88.55
2023-09-17T00:22:40.132Z,88.95
2023-09-17T00:25:07.799Z,89.14
2023-09-17T00:27:35.132Z,90.34
2023-09-17T00:30:02.611Z,90.11
2023-09-17T00:32:29.933Z,91.04
2023-09-17T00:34:57.245Z,90.91
2023-09-17T00:37:24.877Z,91.11
2023-09-17T00:39:52.126Z,92.16
2023-09-17T00:42:19.473Z,93.15
2023-09-17T00:44:46.826Z,92.48
2023-09-17T00:47:14.658Z,92.75
2023-09-17T00:49:42.602Z,93.18
2023-09-17T00:52:16.853Z,93.67
2023-09-17T00:54:46.032Z,94.08
2023-09-17T00:57:16.560Z,94.62
2023-09-17T00:59:50.514Z,94.32
2023-09-17T01:02:20.740Z,94.82
2023-09-17T01:04:52.609Z,94.13
2023-09-17T01:07:23.317Z,94.60
2023-09-17T01:09:51.397Z,94.58
2023-09-17T01:12:19.360Z,94.87
2023-09-17T01:14:47.781Z,95.09
2023-09-17T01:17:15.275Z,94.58
2023-09-17T01:19:44.089Z,95.08
2023-09-17T01:22:23.937Z,95.30
2023-09-17T01:25:29.873Z,96.14
2023-09-17T01:27:57.351Z,96.43
2023-09-17T01:30:24.643Z,96.72
2023-09-17T01:32:52.514Z,97.66
2023-09-17T01:35:20.113Z,97.59
2023-09-17T01:37:50.589Z,97.46
2023-09-17T01:40:18.621Z,97.62
2023-09-17T01:42:47.540Z,97.24
2023-09-17T01:45:17.893Z,97.88
2023-09-17T01:47:47.385Z,98.27
2023-09-17T01:50:16.591Z,99.32
2023-09-17T01:52:45.286Z,99.12
2023-09-17T01:55:13.671Z,99.06
2023-09-17T01:57:42.276Z,99.70
2023-09-17T02:00:17.918Z,100.00
2023-09-17T02:02:50.550Z,99.83
2023-09-17T02:05:18.606Z,99.80
2023-09-17T02:07:46.607Z,99.88
2023-09-17T02:10:14.414Z,99.91
2023-09-17T02:12:41.964Z,100.00
2023-09-17T02:15:10.723Z,100.00
2023-09-17T02:17:38.036Z,100.00
2023-09-17T02:20:09.585Z,100.00
2023-09-17T02:22:37.396Z,100.00
2023-09-17T02:25:06.559Z,100.00
2023-09-17T02:27:35.036Z,100.00
2023-09-17T02:30:03.570Z,100.00
2023-09-17T02:32:30.889Z,100.00
2023-09-17T02:34:58.730Z,100.00
2023-09-17T02:37:26.012Z,100.00
2023-09-17T02:39:53.386Z,100.00
2023-09-17T02:42:21.196Z,100.00
2023-09-17T02:44:48.471Z,100.00
2023-09-17T02:47:16.324Z,100.00
2023-09-17T02:49:43.768Z,100.00
2023-09-17T02:52:11.220Z,100.00
2023-09-17T02:54:38.567Z,100.00
2023-09-17T02:57:05.805Z,100.00
2023-09-17T02:59:35.643Z,100.00
2023-09-17T03:02:05.034Z,100.00
2023-09-17T03:04:32.422Z,100.00
2023-09-17T03:06:59.830Z,100.00
2023-09-17T03:09:27.158Z,100.00
2023-09-17T03:11:54.417Z,100.00
2023-09-17T03:14:21.978Z,100.00
2023-09-17T03:16:49.785Z,100.00
2023-09-17T03:19:17.132Z,100.00
2023-09-17T03:21:44.500Z,100.00
2023-09-17T03:24:12.635Z,100.00
2023-09-17T03:26:39.884Z,100.00
2023-09-17T03:29:08.859Z,100.00
2023-09-17T03:31:36.309Z,100.00
2023-09-17T03:34:04.380Z,100.00
2023-09-17T03:36:31.853Z,100.00
2023-09-17T03:39:01.176Z,100.00
2023-09-17T03:41:28.734Z,100.00
2023-09-17T03:43:56.609Z,100.00
2023-09-17T03:46:25.236Z,100.00
2023-09-17T03:48:54.663Z,100.00
2023-09-17T03:51:22.299Z,100.00
2023-09-17T03:53:51.552Z,100.00
2023-09-17T03:56:20.187Z,100.00
2023-09-17T03:58:48.772Z,100.00
2023-09-17T04:01:16.360Z,100.00
2023-09-17T04:03:43.771Z,100.00
2023-09-17T04:06:11.082Z,100.00
2023-09-17T04:08:38.465Z,100.00
2023-09-17T04:11:06.316Z,100.00
2023-09-17T04:13:33.762Z,100.00
2023-09-17T04:16:01.205Z,100.00
2023-09-17T04:18:28.571Z,100.00
2023-09-17T04:20:56.566Z,100.00
2023-09-17T04:23:26.026Z,100.00
2023-09-17T04:25:53.447Z,100.00
2023-09-17T04:28:20.882Z,100.00
2023-09-17T04:30:48.236Z,100.00
2023-09-17T04:33:16.079Z,100.00
2023-09-17T04:35:43.358Z,100.00
2023-09-17T04:38:11.454Z,100.00
2023-09-17T04:40:39.080Z,100.00
2023-09-17T04:43:06.652Z,100.00
2023-09-17T04:45:40.832Z,100.00
2023-09-17T04:48:10.330Z,100.00
2023-09-17T04:50:38.054Z,100.00
2023-09-17T04:53:05.340Z,100.00
2023-09-17T04:55:32.650Z,100.00
2023-09-17T04:58:00.962Z,100.00
2023-09-17T05:00:28.259Z,100.00
2023-09-17T05:02:55.747Z,100.00
2023-09-17T05:05:26.453Z,100.00
2023-09-17T05:07:54.518Z,100.00
2023-09-17T05:10:22.535Z,100.00
2023-09-17T05:12:50.345Z,100.00
2023-09-17T05:15:17.878Z,100.00
2023-09-17T05:17:45.107Z,100.00
2023-09-17T05:20:12.621Z,100.00
2023-09-17T05:22:40.028Z,100.00
2023-09-17T05:25:12.189Z,100.00
2023-09-17T05:27:39.729Z,100.00
2023-09-17T05:30:07.714Z,100.00
2023-09-17T05:32:35.148Z,100.00
2023-09-17T05:35:04.208Z,100.00
2023-09-17T05:37:32.245Z,100.00
2023-09-17T05:39:59.874Z,100.00
2023-09-17T05:42:27.581Z,100.00
2023-09-17T05:44:54.990Z,100.00
2023-09-17T05:47:22.215Z,100.00
2023-09-17T05:49:49.459Z,100.00
2023-09-17T05:52:17.466Z,100.00
2023-09-17T05:54:44.825Z,100.00
2023-09-17T05:57:12.310Z,100.00
2023-09-17T05:59:39.863Z,100.00
2023-09-17T06:02:08.878Z,99.75
2023-09-17T06:04:37.032Z,99.21
2023-09-17T06:07:04.673Z,98.06
2023-09-17T06:09:32.818Z,97.18
2023-09-17T06:12:00.079Z,97.29
2023-09-17T06:14:27.708Z,96.60
2023-09-17T06:16:58.033Z,96.47
2023-09-17T06:19:27.099Z,95.69
2023-09-17T06:21:54.957Z,95.23
2023-09-17T06:24:22.186Z,95.35
2023-09-17T06:26:49.449Z,94.86
2023-09-17T06:29:17.309Z,94.42
2023-09-17T06:31:45.470Z,93.97
2023-09-17T06:34:12.847Z,93.45
2023-09-17T06:36:40.311Z,92.43
2023-09-17T06:39:07.993Z,91.64
2023-09-17T06:41:38.231Z,90.96
2023-09-17T06:44:07.135Z,90.33
2023-09-17T06:46:34.862Z,89.63
2023-09-17T06:49:02.587Z,89.21
2023-09-17T06:51:29.781Z,88.64
2023-09-17T06:53:57.149Z,88.74
2023-09-17T06:56:27.241Z,88.33
2023-09-17T06:58:54.526Z,87.81
2023-09-17T07:01:21.852Z,87.64
2023-09-17T07:03:49.509Z,87.43
2023-09-17T07:06:17.347Z,86.83
2023-09-17T07:08:44.821Z,85.98
2023-09-17T07:11:12.313Z,85.44
2023-09-17T07:13:41.798Z,84.88
2023-09-17T07:16:09.554Z,84.29
2023-09-17T07:18:37.344Z,83.63
2023-09-17T07:21:05.262Z,82.74
2023-09-17T07:23:33.744Z,82.27
2023-09-17T07:26:01.524Z,81.36
2023-09-17T07:28:30.508Z,80.86
2023-09-17T07:30:58.462Z,80.19
2023-09-17T07:33:26.037Z,79.78
2023-09-17T07:35:53.878Z,79.62
2023-09-17T07:38:21.337Z,78.55
2023-09-17T07:40:49.382Z,78.90
2023-09-17T07:43:16.699Z,78.04
2023-09-17T07:45:43.926Z,77.42
2023-09-17T07:48:11.506Z,76.96
2023-09-17T07:50:41.252Z,76.21
2023-09-17T07:53:08.954Z,75.99
2023-09-17T07:55:36.395Z,75.38
2023-09-17T07:58:04.577Z,74.72
2023-09-17T08:00:32.125Z,74.52
2023-09-17T08:02:59.629Z,73.48
2023-09-17T08:05:27.778Z,72.64
2023-09-17T08:07:55.200Z,72.79
2023-09-17T08:10:22.911Z,72.21
2023-09-17T08:12:50.155Z,72.40
2023-09-17T08:15:18.216Z,71.90
2023-09-17T08:17:45.552Z,71.06
2023-09-17T08:20:13.050Z,70.71
2023-09-17T08:22:40.594Z,70.71
2023-09-17T08:25:10.036Z,69.47
2023-09-17T08:27:37.657Z,69.34
2023-09-17T08:30:08.365Z,69.69
2023-09-17T08:32:35.669Z,69.09
2023-09-17T08:35:04.238Z,69.45
2023-09-17T08:37:31.540Z,68.32
2023-09-17T08:39:59.235Z,67.83
2023-09-17T08:42:29.039Z,67.34
2023-09-17T08:45:00.227Z,66.90
2023-09-17T08:47:27.692Z,66.25
2023-09-17T08:49:54.960Z,65.87
2023-09-17T08:52:23.319Z,65.40
2023-09-17T08:54:50.844Z,65.69
2023-09-17T08:57:22.879Z,64.77
2023-09-17T08:59:55.211Z,64.85
2023-09-17T09:02:26.938Z,65.01
2023-09-17T09:04:55.503Z,63.66
2023-09-17T09:07:23.598Z,63.92
2023-09-17T09:09:54.680Z,63.09
2023-09-17T09:12:22.417Z,63.04
2023-09-17T09:14:49.759Z,62.41
2023-09-17T09:17:17.070Z,61.69
2023-09-17T09:19:44.526Z,61.64
2023-09-17T09:22:11.720Z,61.58
2023-09-17T09:24:49.068Z,61.67
2023-09-17T09:27:16.717Z,61.25
2023-09-17T09:30:10.732Z,60.87
2023-09-17T09:32:38.860Z,60.79
2023-09-17T09:35:06.876Z,60.47
2023-09-17T09:37:35.640Z,60.04
2023-09-17T09:40:04.122Z,60.09
2023-09-17T09:42:31.742Z,59.02
2023-09-17T09:44:59.223Z,58.72
2023-09-17T09:47:26.641Z,57.56
2023-09-17T09:49:54.691Z,56.84
2023-09-17T09:52:22.786Z,57.27
2023-09-17T09:54:50.209Z,57.10
2023-09-17T09:57:19.797Z,57.21
2023-09-17T09:59:49.145Z,57.26
2023-09-17T10:02:18.511Z,56.58
2023-09-17T10:04:46.952Z,56.87
2023-09-17T10:07:15.656Z,56.45
2023-09-17T10:09:43.621Z,55.75
2023-09-17T10:12:11.394Z,55.97
2023-09-17T10:14:39.353Z,55.51
2023-09-17T10:17:08.198Z,55.23
2023-09-17T10:19:36.187Z,54.71
2023-09-17T10:22:09.186Z,54.54
2023-09-17T10:24:37.529Z,54.34
2023-09-17T10:27:07.028Z,53.25
2023-09-17T10:29:35.863Z,53.26
2023-09-17T10:32:04.461Z,53.75
2023-09-17T10:34:34.279Z,53.31
2023-09-17T10:37:04.183Z,50.47
2023-09-17T10:39:34.210Z,50.40
2023-09-17T10:42:03.693Z,49.32
2023-09-17T10:44:31.976Z,48.10
2023-09-17T10:47:03.174Z,47.40
2023-09-17T10:49:32.878Z,46.69
2023-09-17T10:52:01.458Z,45.57
2023-09-17T10:54:28.678Z,46.22
2023-09-17T10:56:56.798Z,46.19
2023-09-17T10:59:25.319Z,45.85
2023-09-17T11:01:53.312Z,44.00
2023-09-17T11:04:23.087Z,44.44
2023-09-17T11:06:51.162Z,43.66
2023-09-17T11:09:19.532Z,42.84
2023-09-17T11:11:46.967Z,42.46
2023-09-17T11:14:15.354Z,42.38
2023-09-17T11:16:43.653Z,41.71
2023-09-17T11:19:17.082Z,42.02
2023-09-17T11:22:03.096Z,42.41
2023-09-17T11:24:33.794Z,41.07
2023-09-17T11:27:05.588Z,40.46
2023-09-17T11:29:41.234Z,39.40
2023-09-17T11:32:08.909Z,38.92
2023-09-17T11:34:38.870Z,39.63
2023-09-17T11:37:07.114Z,39.02
2023-09-17T11:39:36.744Z,38.78
2023-09-17T11:42:06.966Z,39.28
2023-09-17T11:44:36.444Z,38.55
2023-09-17T11:47:05.346Z,38.90
2023-09-17T11:49:35.753Z,38.28
2023-09-17T11:52:12.727Z,36.93
2023-09-17T11:54:52.309Z,36.44
2023-09-17T11:57:27.258Z,36.85
2023-09-17T11:59:59.323Z,36.48
2023-09-17T12:02:27.826Z,35.60
2023-09-17T12:04:55.974Z,35.05
2023-09-17T12:07:23.588Z,33.87
2023-09-17T12:10:08.823Z,33.76
2023-09-17T12:12:37.394Z,33.70
2023-09-17T12:15:06.080Z,32.95
2023-09-17T12:17:43.947Z,33.15
2023-09-17T12:20:32.109Z,33.48
2023-09-17T12:23:04.648Z,33.22
2023-09-17T12:25:44.100Z,34.01
2023-09-17T12:28:11.728Z,33.77
2023-09-17T12:30:38.996Z,33.63
2023-09-17T12:33:06.381Z,33.15
2023-09-17T12:35:34.576Z,32.07
2023-09-17T12:38:01.950Z,31.86
2023-09-17T12:40:29.278Z,30.48
2023-09-17T12:42:56.576Z,29.83
2023-09-17T12:45:24.635Z,27.98
2023-09-17T12:47:52.189Z,25.50
2023-09-17T12:50:20.162Z,24.60
2023-09-17T12:52:47.462Z,22.53
2023-09-17T12:55:14.712Z,21.53
2023-09-17T12:57:41.906Z,19.43
2023-09-17T13:00:09.703Z,18.12
2023-09-17T13:02:38.775Z,16.69
2023-09-17T13:05:06.752Z,16.04
2023-09-17T13:07:34.620Z,15.56
2023-09-17T13:10:02.113Z,13.74
2023-09-17T13:12:29.453Z,13.48
2023-09-17T13:14:57.380Z,13.33
2023-09-17T13:17:27.638Z,13.30
2023-09-17T13:19:55.274Z,13.71
2023-09-17T13:22:23.117Z,13.99
2023-09-17T13:24:50.825Z,15.57
2023-09-17T13:27:19.926Z,16.38
2023-09-17T13:29:54.843Z,15.51
2023-09-17T13:32:22.474Z,16.07
2023-09-17T13:34:50.521Z,16.83
2023-09-17T13:37:18.345Z,17.13
2023-09-17T13:39:50.702Z,18.39
2023-09-17T13:42:19.400Z,18.66
2023-09-17T13:44:46.720Z,17.57
2023-09-17T13:47:14.078Z,17.70
2023-09-17T13:49:42.336Z,17.78
2023-09-17T13:52:10.183Z,18.50
2023-09-17T13:54:39.900Z,18.43
2023-09-17T13:57:07.759Z,19.63
2023-09-17T13:59:36.661Z,19.42
2023-09-17T14:02:05.173Z,19.46
2023-09-17T14:04:34.110Z,19.91
2023-09-17T14:07:01.673Z,20.05
2023-09-17T14:09:29.211Z,18.91
2023-09-17T14:11:56.416Z,17.01
2023-09-17T14:14:23.602Z,16.20
2023-09-17T14:16:51.228Z,15.96
2023-09-17T14:19:20.024Z,15.67
2023-09-17T14:21:48.958Z,15.80
2023-09-17T14:24:16.360Z,14.67
2023-09-17T14:26:44.824Z,14.37
2023-09-17T14:29:12.319Z,12.59
2023-09-17T14:31:42.698Z,13.05
2023-09-17T14:34:11.696Z,13.87
2023-09-17T14:36:38.904Z,14.57
2023-09-17T14:39:06.233Z,13.36
2023-09-17T14:41:33.470Z,11.92
2023-09-17T14:44:01.910Z,12.40
2023-09-17T14:46:29.392Z,12.61
2023-09-17T14:48:56.622Z,12.69
2023-09-17T14:51:24.041Z,12.45
2023-09-17T14:53:51.292Z,11.78
2023-09-17T14:56:18.712Z,11.88
2023-09-17T14:58:46.058Z,11.56
2023-09-17T15:01:33.193Z,11.06
2023-09-17T15:04:02.119Z,10.95
2023-09-17T15:06:30.605Z,11.00
2023-09-17T15:08:59.642Z,10.62
2023-09-17T15:11:27.409Z,10.91
2023-09-17T15:13:54.871Z,11.60
2023-09-17T15:16:22.775Z,10.58
2023-09-17T15:18:50.591Z,11.50
2023-09-17T15:21:18.832Z,11.24
2023-09-17T15:23:46.436Z,11.45
2023-09-17T15:26:13.845Z,11.67
2023-09-17T15:28:41.501Z,11.63
2023-09-17T15:31:09.787Z,12.07
2023-09-17T15:33:40.253Z,11.61
2023-09-17T15:36:07.746Z,11.78
2023-09-17T15:38:35.064Z,11.74
2023-09-17T15:41:04.631Z,12.28
2023-09-17T15:43:36.771Z,12.28
2023-09-17T15:46:04.386Z,12.84
2023-09-17T15:48:31.846Z,12.05
2023-09-17T15:51:03.388Z,12.90
2023-09-17T15:53:32.541Z,12.98
2023-09-17T15:56:00.462Z,12.70
2023-09-17T15:58:27.923Z,12.76
2023-09-17T16:00:55.568Z,13.05
2023-09-17T16:03:23.114Z,13.17
2023-09-17T16:05:50.792Z,13.79
2023-09-17T16:08:18.119Z,14.67
2023-09-17T16:10:45.542Z,14.49
2023-09-17T16:13:13.940Z,14.56
2023-09-17T16:15:41.677Z,15.27
2023-09-17T16:18:10.788Z,15.77
2023-09-17T16:20:38.234Z,15.86
2023-09-17T16:23:09.067Z,17.45
2023-09-17T16:25:36.469Z,20.24
2023-09-17T16:28:04.044Z,23.14
2023-09-17T16:30:32.210Z,24.90
2023-09-17T16:32:59.817Z,26.48
2023-09-17T16:35:27.669Z,27.61
2023-09-17T16:37:55.033Z,28.67
2023-09-17T16:40:23.622Z,30.15
2023-09-17T16:43:05.780Z,30.81
2023-09-17T16:45:46.479Z,31.83
2023-09-17T16:48:28.835Z,33.29
2023-09-17T16:50:58.521Z,34.24
2023-09-17T16:53:27.359Z,34.92
2023-09-17T16:55:55.731Z,35.53
2023-09-17T16:58:24.097Z,37.08
2023-09-17T17:00:52.730Z,37.99
2023-09-17T17:03:20.145Z,38.44
2023-09-17T17:05:47.410Z,38.86
2023-09-17T17:08:17.433Z,38.82
2023-09-17T17:10:44.830Z,40.01
2023-09-17T17:13:13.240Z,41.08
2023-09-17T17:15:40.565Z,41.38
2023-09-17T17:18:11.271Z,42.45
2023-09-17T17:20:40.159Z,42.63
2023-09-17T17:23:08.080Z,43.08
2023-09-17T17:25:37.983Z,44.00
2023-09-17T17:28:06.494Z,44.79
2023-09-17T17:30:34.120Z,44.92
2023-09-17T17:33:01.555Z,45.29
2023-09-17T17:35:28.853Z,45.44
2023-09-17T17:37:56.297Z,45.80
2023-09-17T17:40:28.521Z,47.04
2023-09-17T17:43:00.398Z,47.40
2023-09-17T17:45:31.297Z,47.12
2023-09-17T17:48:06.744Z,47.93
2023-09-17T17:50:37.653Z,47.81
2023-09-17T17:53:06.856Z,48.41
2023-09-17T17:55:34.256Z,48.65
2023-09-17T17:58:01.615Z,49.15
2023-09-17T18:00:28.853Z,49.55
2023-09-17T18:02:56.509Z,50.56
2023-09-17T18:05:23.955Z,50.83
2023-09-17T18:07:51.445Z,51.68
2023-09-17T18:10:21.089Z,51.86
2023-09-17T18:12:49.082Z,51.92
2023-09-17T18:15:19.557Z,52.38
2023-09-17T18:17:54.917Z,53.27
2023-09-17T18:20:22.447Z,53.81
2023-09-17T18:22:49.860Z,54.22
2023-09-17T18:25:17.368Z,54.44
2023-09-17T18:27:44.797Z,54.72
2023-09-17T18:30:12.409Z,54.90
2023-09-17T18:32:39.686Z,54.84
2023-09-17T18:35:07.432Z,55.82
2023-09-17T18:37:36.046Z,55.66
2023-09-17T18:40:05.155Z,56.18
2023-09-17T18:42:34.177Z,56.43
2023-09-17T18:45:04.694Z,56.27
2023-09-17T18:47:32.061Z,56.77
2023-09-17T18:49:59.613Z,57.79
2023-09-17T18:52:29.324Z,57.67
2023-09-17T18:55:01.029Z,57.79
2023-09-17T18:57:30.212Z,58.05
2023-09-17T18:59:57.973Z,57.98
2023-09-17T19:02:25.279Z,58.20
2023-09-17T19:04:52.775Z,58.97
2023-09-17T19:07:20.048Z,58.89
2023-09-17T19:09:49.047Z,58.98
2023-09-17T19:12:16.741Z,59.52
2023-09-17T19:14:47.429Z,59.41
2023-09-17T19:17:16.192Z,59.64
2023-09-17T19:19:43.497Z,59.40
2023-09-17T19:22:10.936Z,59.50
2023-09-17T19:24:38.295Z,59.66
2023-09-17T19:27:05.767Z,60.27
2023-09-17T19:29:34.084Z,60.09
2023-09-17T19:32:03.207Z,60.55
2023-09-17T19:34:30.981Z,60.09
2023-09-17T19:36:59.230Z,61.09
2023-09-17T19:39:28.664Z,60.01
2023-09-17T19:41:57.069Z,60.61
2023-09-17T19:44:24.499Z,60.95
2023-09-17T19:46:59.441Z,60.84
2023-09-17T19:49:27.738Z,60.80
2023-09-17T19:51:56.275Z,61.76
2023-09-17T19:54:24.250Z,61.84
2023-09-17T19:56:51.664Z,61.48
2023-09-17T19:59:19.021Z,61.28
2023-09-17T20:01:48.980Z,61.18
2023-09-17T20:04:16.747Z,60.99
2023-09-17T20:06:54.743Z,61.08
2023-09-17T20:09:22.988Z,61.30
2023-09-17T20:11:52.924Z,62.04
2023-09-17T20:14:22.099Z,62.65
2023-09-17T20:16:52.246Z,63.05
2023-09-17T20:19:23.877Z,62.37
2023-09-17T20:21:51.432Z,62.80
2023-09-17T20:24:30.122Z,63.19
2023-09-17T20:26:58.403Z,63.56
2023-09-17T20:29:26.976Z,64.05
2023-09-17T20:31:54.770Z,63.71
2023-09-17T20:34:25.064Z,63.76
2023-09-17T20:36:53.448Z,64.30
2023-09-17T20:39:21.128Z,64.23
2023-09-17T20:41:49.155Z,64.16
2023-09-17T20:44:16.809Z,64.70
2023-09-17T20:46:44.247Z,65.30
2023-09-17T20:49:11.527Z,66.03
2023-09-17T20:51:39.920Z,65.27
2023-09-17T20:54:07.303Z,65.33
2023-09-17T20:56:35.824Z,65.45
2023-09-17T20:59:04.039Z,65.78
2023-09-17T21:01:31.669Z,66.12
2023-09-17T21:03:59.219Z,66.00
2023-09-17T21:06:26.478Z,65.59
2023-09-17T21:08:54.941Z,66.53
2023-09-17T21:11:22.290Z,66.60
2023-09-17T21:13:49.651Z,66.25
2023-09-17T21:16:19.626Z,66.10
2023-09-17T21:18:47.803Z,66.35
2023-09-17T21:21:15.141Z,67.55
2023-09-17T21:23:42.399Z,67.01
2023-09-17T21:26:12.793Z,67.09
2023-09-17T21:28:41.722Z,66.79
2023-09-17T21:31:09.102Z,67.10
2023-09-17T21:33:36.519Z,67.54
2023-09-17T21:36:04.323Z,67.72
2023-09-17T21:38:32.104Z,67.45
2023-09-17T21:41:01.137Z,68.05
2023-09-17T21:43:29.360Z,68.44
2023-09-17T21:45:58.648Z,68.03
2023-09-17T21:48:31.332Z,68.12
2023-09-17T21:51:06.173Z,68.04
2023-09-17T21:53:36.781Z,68.57
2023-09-17T21:56:12.362Z,68.77
2023-09-17T21:58:44.974Z,69.37
2023-09-17T22:01:12.983Z,69.43
2023-09-17T22:03:43.198Z,69.08
2023-09-17T22:06:13.763Z,69.31
2023-09-17T22:08:45.186Z,69.99
2023-09-17T22:11:16.347Z,69.52
2023-09-17T22:13:44.755Z,69.57
2023-09-17T22:16:14.800Z,70.19
2023-09-17T22:18:44.131Z,69.84
2023-09-17T22:21:14.423Z,69.75
2023-09-17T22:23:41.854Z,70.17
2023-09-17T22:26:09.345Z,70.35
2023-09-17T22:28:37.393Z,70.17
2023-09-17T22:31:16.706Z,70.21
2023-09-17T22:33:46.608Z,70.07
2023-09-17T22:36:13.995Z,70.68
2023-09-17T22:38:44.363Z,70.41
2023-09-17T22:41:27.120Z,70.41
2023-09-17T22:44:04.690Z,70.44
2023-09-17T22:46:44.455Z,70.04
2023-09-17T22:49:12.221Z,70.13
2023-09-17T22:51:42.826Z,70.59
2023-09-17T22:54:11.113Z,70.52
2023-09-17T22:56:41.545Z,70.26
2023-09-17T22:59:09.954Z,70.61
2023-09-17T23:01:39.661Z,70.06
2023-09-17T23:04:10.348Z,70.12
2023-09-17T23:06:37.770Z,70.45
2023-09-17T23:09:05.678Z,70.51
2023-09-17T23:11:34.866Z,70.45
2023-09-17T23:14:08.006Z,70.30
2023-09-17T23:16:39.257Z,70.56
2023-09-17T23:19:12.547Z,71.08
2023-09-17T23:21:41.318Z,70.86
2023-09-17T23:24:14.278Z,70.86
2023-09-17T23:26:42.671Z,71.62
2023-09-17T23:29:14.353Z,72.42
2023-09-17T23:31:41.686Z,72.81
2023-09-17T23:34:11.905Z,72.58
2023-09-17T23:36:39.433Z,72.52
2023-09-17T23:39:12.566Z,72.84
2023-09-17T23:41:40.336Z,72.67
2023-09-17T23:44:10.952Z,73.01
2023-09-17T23:46:40.782Z,73.00
2023-09-17T23:49:10.462Z,73.37
2023-09-17T23:51:39.111Z,73.42
2023-09-17T23:54:13.491Z,73.74
2023-09-17T23:56:41.500Z,74.37
2023-09-17T23:59:10.126Z,74.07
